Time;durP1;ratioP1;P1;durP2;ratioP2;P2;SDS_P1;SDS_P2;PMS_P1;PMS_P2;Temp;Humidity;BMP_temperature;BMP_pressure;BME280_temperature;BME280_humidity;BME280_pressure;Samples;Min_cycle;Max_cycle;Signal;HPM_P1;HPM_P2
2023/01/20 00:00:02;;;;;;;21.90;20.90;;;19.40;49.60;;;;;;5032643;28;20544;-48
2023/01/20 00:02:29;;;;;;;21.60;20.70;;;19.40;49.70;;;;;;5032496;28;20452;-48
2023/01/20 00:04:56;;;;;;;22.30;21.17;;;19.40;49.70;;;;;;5032301;28;20568;-49
2023/01/20 00:07:23;;;;;;;21.83;20.90;;;19.40;49.80;;;;;;5032489;28;20536;-50
2023/01/20 00:09:51;;;;;;;22.27;21.17;;;19.40;49.80;;;;;;5032214;28;20524;-48
2023/01/20 00:12:18;;;;;;;22.70;21.70;;;19.40;49.80;;;;;;5032111;28;20540;-48
2023/01/20 00:14:45;;;;;;;22.07;21.10;;;19.40;49.80;;;;;;5032300;28;20543;-52
2023/01/20 00:17:12;;;;;;;22.50;21.50;;;19.40;49.80;;;;;;5032065;28;20539;-48
2023/01/20 00:19:39;;;;;;;21.83;20.93;;;19.40;49.80;;;;;;5032258;28;20441;-48
2023/01/20 00:22:05;;;;;;;22.10;21.20;;;19.40;49.90;;;;;;5031833;28;20879;-48
2023/01/20 00:24:32;;;;;;;22.77;21.67;;;19.40;49.90;;;;;;5031447;28;20477;-50
2023/01/20 00:27:00;;;;;;;22.00;21.10;;;19.30;49.80;;;;;;5032339;28;20536;-48
2023/01/20 00:29:27;;;;;;;22.50;21.50;;;19.30;49.90;;;;;;5031922;28;20456;-48
2023/01/20 00:31:54;;;;;;;22.70;21.73;;;19.30;49.90;;;;;;5031890;28;20479;-48
2023/01/20 00:34:21;;;;;;;23.43;22.40;;;19.30;49.90;;;;;;5031216;28;20465;-49
2023/01/20 00:36:48;;;;;;;22.50;21.60;;;19.30;50.00;;;;;;5031842;28;20950;-49
2023/01/20 00:39:14;;;;;;;22.30;21.30;;;19.30;49.90;;;;;;5031740;28;20457;-48
2023/01/20 00:41:41;;;;;;;22.03;21.00;;;19.30;50.00;;;;;;5031798;28;20523;-48
2023/01/20 00:44:10;;;;;;;21.97;21.07;;;19.30;50.00;;;;;;5072259;22;20489;-58
2023/01/20 00:46:37;;;;;;;21.87;20.97;;;19.30;50.00;;;;;;5029281;28;20453;-59
2023/01/20 00:49:04;;;;;;;22.13;21.13;;;19.30;50.00;;;;;;5032000;28;20528;-59
2023/01/20 00:51:31;;;;;;;22.30;21.20;;;19.30;50.00;;;;;;5031568;28;20536;-61
2023/01/20 00:53:57;;;;;;;22.23;21.17;;;19.30;50.00;;;;;;5031831;28;20559;-59
2023/01/20 00:56:24;;;;;;;23.03;21.57;;;19.30;50.10;;;;;;5031084;28;20448;-60
2023/01/20 00:58:53;;;;;;;22.10;21.10;;;19.30;50.10;;;;;;5031880;28;20540;-60
2023/01/20 01:01:22;;;;;;;21.67;20.73;;;19.30;50.10;;;;;;5031563;28;20456;-60
2023/01/20 01:03:49;;;;;;;22.10;21.10;;;19.30;50.10;;;;;;5031446;28;20471;-58
2023/01/20 01:06:17;;;;;;;21.70;20.70;;;19.30;50.20;;;;;;5031001;28;20487;-60
2023/01/20 01:08:44;;;;;;;22.00;21.00;;;19.30;50.10;;;;;;5031514;28;20524;-59
2023/01/20 01:11:12;;;;;;;22.17;21.27;;;19.30;50.20;;;;;;5031374;28;20437;-61
2023/01/20 01:13:39;;;;;;;22.33;21.33;;;19.30;50.20;;;;;;5031560;28;20552;-61
2023/01/20 01:16:10;;;;;;;22.40;21.07;;;19.30;50.20;;;;;;5031342;28;20537;-58
2023/01/20 01:18:38;;;;;;;22.53;21.53;;;19.30;50.10;;;;;;5011980;28;20456;-60
2023/01/20 01:21:09;;;;;;;22.27;21.37;;;19.20;50.00;;;;;;5013736;28;20445;-60
2023/01/20 01:23:36;;;;;;;21.67;20.77;;;19.20;50.00;;;;;;5031580;28;20992;-59
2023/01/20 01:26:03;;;;;;;21.27;20.37;;;19.20;50.00;;;;;;5031494;28;20480;-54
2023/01/20 01:28:30;;;;;;;22.30;21.30;;;19.20;50.10;;;;;;5031132;28;20950;-59
2023/01/20 01:31:00;;;;;;;22.63;21.63;;;19.20;50.10;;;;;;5039647;28;20978;-54
2023/01/20 01:33:27;;;;;;;21.80;20.80;;;19.20;50.10;;;;;;5031689;28;20473;-58
2023/01/20 01:36:00;;;;;;;21.93;21.03;;;19.20;50.10;;;;;;5031414;28;20444;-59
2023/01/20 01:38:28;;;;;;;21.77;20.80;;;19.20;50.10;;;;;;5031589;28;20445;-57
2023/01/20 01:40:55;;;;;;;23.00;22.00;;;19.20;50.10;;;;;;5030810;28;20481;-59
2023/01/20 01:43:24;;;;;;;22.03;21.13;;;19.20;50.10;;;;;;5031156;28;20469;-57
2023/01/20 01:45:51;;;;;;;21.80;20.90;;;19.20;50.20;;;;;;5032491;28;20476;-56
2023/01/20 01:48:21;;;;;;;22.27;21.37;;;19.20;50.20;;;;;;5035564;28;20535;-54
2023/01/20 01:50:53;;;;;;;22.80;21.80;;;19.20;50.20;;;;;;5035251;28;20445;-59
2023/01/20 01:53:22;;;;;;;21.80;20.93;;;19.20;50.20;;;;;;5035360;28;20465;-58
2023/01/20 01:55:53;;;;;;;22.10;21.17;;;19.20;50.20;;;;;;5035258;28;20445;-59
2023/01/20 01:58:24;;;;;;;22.10;21.20;;;19.20;50.20;;;;;;5034859;28;20449;-58
2023/01/20 02:00:52;;;;;;;22.17;21.27;;;19.20;50.30;;;;;;5034925;28;20456;-60
2023/01/20 02:03:19;;;;;;;21.80;20.80;;;19.20;50.30;;;;;;5034531;28;20468;-61
2023/01/20 02:05:48;;;;;;;22.40;21.40;;;19.20;50.30;;;;;;5034737;28;20484;-61
2023/01/20 02:08:15;;;;;;;22.63;21.70;;;19.20;50.30;;;;;;5034608;28;20544;-61
2023/01/20 02:10:43;;;;;;;22.70;21.70;;;19.20;50.30;;;;;;5034850;28;20473;-59
2023/01/20 02:13:10;;;;;;;23.20;22.13;;;19.20;50.20;;;;;;5018768;28;20931;-61
2023/01/20 02:15:45;;;;;;;21.57;20.67;;;19.20;50.20;;;;;;5033992;28;20935;-58
2023/01/20 02:18:37;;;;;;;22.00;21.10;;;19.20;50.20;;;;;;5034753;28;20458;-60
2023/01/20 02:21:50;;;;;;;21.93;21.03;;;19.20;50.20;;;;;;5034259;28;20449;-59
2023/01/20 02:24:55;;;;;;;21.90;20.90;;;19.20;50.30;;;;;;5026937;28;20841;-61
2023/01/20 02:27:39;;;;;;;21.50;20.60;;;19.20;50.30;;;;;;5034000;28;20444;-62
2023/01/20 02:30:24;;;;;;;22.47;21.47;;;19.20;50.40;;;;;;5034429;28;20960;-59
2023/01/20 02:32:56;;;;;;;22.83;21.53;;;19.20;50.40;;;;;;5034233;28;20448;-61
2023/01/20 02:35:29;;;;;;;21.90;21.00;;;19.20;50.40;;;;;;5034490;28;20441;-60
2023/01/20 02:38:07;;;;;;;22.23;21.23;;;19.20;50.50;;;;;;5033943;28;20528;-61
2023/01/20 02:40:42;;;;;;;22.57;21.27;;;19.20;50.40;;;;;;5034423;28;20449;-60
2023/01/20 02:43:11;;;;;;;21.60;20.70;;;19.20;50.40;;;;;;5033804;28;20454;-60
2023/01/20 02:45:45;;;;;;;22.00;21.03;;;19.20;50.40;;;;;;5033880;28;20481;-60
2023/01/20 02:48:35;;;;;;;22.13;21.13;;;19.20;50.40;;;;;;4996366;28;20453;-60
2023/01/20 02:51:08;;;;;;;22.37;21.37;;;19.20;50.40;;;;;;5033680;28;20455;-57
2023/01/20 02:53:40;;;;;;;21.27;20.37;;;19.20;50.40;;;;;;5033449;28;20567;-60
2023/01/20 02:56:09;;;;;;;22.00;21.00;;;19.20;50.40;;;;;;5033964;28;20443;-61
2023/01/20 02:58:40;;;;;;;21.63;20.73;;;19.20;50.40;;;;;;5033127;28;20441;-61
2023/01/20 03:01:13;;;;;;;22.40;21.40;;;19.20;50.40;;;;;;5033579;28;20964;-61
2023/01/20 03:03:45;;;;;;;22.30;21.30;;;19.20;50.40;;;;;;5033404;28;20492;-61
2023/01/20 03:06:19;;;;;;;22.63;21.63;;;19.20;50.50;;;;;;5033485;28;20473;-56
2023/01/20 03:08:48;;;;;;;22.30;21.40;;;19.20;50.40;;;;;;5033427;28;20445;-61
2023/01/20 03:11:16;;;;;;;22.53;21.53;;;19.20;50.40;;;;;;5033580;28;20459;-60
2023/01/20 03:13:48;;;;;;;21.80;20.90;;;19.20;50.50;;;;;;5033369;28;20470;-61
2023/01/20 03:16:18;;;;;;;22.53;21.50;;;19.20;50.50;;;;;;5033055;28;20468;-58
2023/01/20 03:18:46;;;;;;;22.37;21.37;;;19.20;50.50;;;;;;5032884;28;20453;-62
2023/01/20 03:21:13;;;;;;;23.00;22.00;;;19.20;50.60;;;;;;5032971;28;20441;-60
2023/01/20 03:23:44;;;;;;;22.00;21.10;;;19.20;50.60;;;;;;5033386;28;20487;-62
2023/01/20 03:26:13;;;;;;;23.00;22.00;;;19.20;51.10;;;;;;5033415;28;20479;-61
2023/01/20 03:28:41;;;;;;;22.97;21.97;;;19.20;50.60;;;;;;5033503;28;20449;-62
2023/01/20 03:31:22;;;;;;;23.00;21.80;;;19.20;50.60;;;;;;5032711;28;20449;-62
2023/01/20 03:33:53;;;;;;;22.53;21.53;;;19.20;50.60;;;;;;5032759;28;20476;-61
2023/01/20 03:36:23;;;;;;;22.80;21.70;;;19.20;50.60;;;;;;5033155;28;20437;-60
2023/01/20 03:38:50;;;;;;;22.93;21.93;;;19.20;50.60;;;;;;5032735;28;20442;-61
2023/01/20 03:41:25;;;;;;;22.57;21.57;;;19.20;51.20;;;;;;5032968;28;20441;-62
2023/01/20 03:43:57;;;;;;;24.10;23.00;;;19.20;50.60;;;;;;5033018;28;20477;-61
2023/01/20 03:46:32;;;;;;;22.40;21.40;;;19.20;50.70;;;;;;5032779;28;20489;-61
2023/01/20 03:49:08;;;;;;;22.60;21.60;;;19.20;50.70;;;;;;5032381;28;20451;-59
2023/01/20 03:51:41;;;;;;;22.33;21.33;;;19.20;50.70;;;;;;5032673;28;20957;-60
2023/01/20 03:54:12;;;;;;;23.17;22.07;;;19.20;50.70;;;;;;5032894;28;20476;-61
2023/01/20 03:56:44;;;;;;;23.77;22.70;;;19.20;50.70;;;;;;5032405;28;20437;-61
2023/01/20 03:59:14;;;;;;;23.40;22.40;;;19.20;50.70;;;;;;5032728;28;20869;-62
2023/01/20 04:01:44;;;;;;;23.37;22.27;;;19.20;50.70;;;;;;5032501;28;20786;-59
2023/01/20 04:04:16;;;;;;;22.40;21.50;;;19.20;50.70;;;;;;5032413;28;20476;-61
2023/01/20 04:06:45;;;;;;;23.40;22.40;;;19.20;50.70;;;;;;5032106;28;20477;-61
2023/01/20 04:09:17;;;;;;;22.60;21.70;;;19.20;50.70;;;;;;5031658;28;20563;-61
2023/01/20 04:11:44;;;;;;;23.53;22.43;;;19.20;50.60;;;;;;5032345;28;20459;-60
2023/01/20 04:14:11;;;;;;;23.77;22.57;;;19.30;50.60;;;;;;5032423;28;20567;-60
2023/01/20 04:16:38;;;;;;;22.50;21.50;;;19.30;50.50;;;;;;5032006;28;20437;-60
2023/01/20 04:19:05;;;;;;;23.47;22.27;;;19.30;50.50;;;;;;5032121;28;20480;-61
2023/01/20 04:21:35;;;;;;;23.70;22.70;;;19.40;50.50;;;;;;5032201;28;20445;-61
2023/01/20 04:24:08;;;;;;;23.50;22.50;;;19.40;50.50;;;;;;5032341;28;20469;-60
2023/01/20 04:26:35;;;;;;;24.10;23.00;;;19.40;50.40;;;;;;5031815;28;21023;-59
2023/01/20 04:29:07;;;;;;;24.97;23.67;;;19.40;50.40;;;;;;5031898;28;20455;-60
2023/01/20 04:31:34;;;;;;;24.13;23.03;;;19.50;50.50;;;;;;5031931;28;20457;-59
2023/01/20 04:34:01;;;;;;;24.07;22.87;;;19.50;50.30;;;;;;5032102;28;20461;-60
2023/01/20 04:36:28;;;;;;;24.77;23.57;;;19.50;50.40;;;;;;5031880;28;20442;-60
2023/01/20 04:38:56;;;;;;;23.03;21.93;;;19.50;50.40;;;;;;5031996;28;20976;-59
2023/01/20 04:41:23;;;;;;;22.37;21.47;;;19.50;50.50;;;;;;5031826;28;20528;-61
2023/01/20 04:43:50;;;;;;;22.93;21.93;;;19.50;50.80;;;;;;5032098;28;21013;-61
2023/01/20 04:46:16;;;;;;;23.13;22.03;;;19.50;50.90;;;;;;5031409;28;20479;-61
2023/01/20 04:48:45;;;;;;;22.80;21.80;;;19.50;51.00;;;;;;5031615;28;20441;-60
2023/01/20 04:51:12;;;;;;;23.40;22.13;;;19.50;51.10;;;;;;5031950;28;20448;-60
2023/01/20 04:53:39;;;;;;;23.43;22.23;;;19.50;51.10;;;;;;5031801;28;20465;-61
2023/01/20 04:56:12;;;;;;;22.90;21.90;;;19.50;51.10;;;;;;5031526;28;20536;-60
2023/01/20 04:58:39;;;;;;;23.37;22.27;;;19.60;51.20;;;;;;5021901;28;20446;-58
2023/01/20 05:01:06;;;;;;;23.90;22.80;;;19.50;51.10;;;;;;5018882;28;20441;-58
2023/01/20 05:03:33;;;;;;;23.60;22.50;;;19.60;51.20;;;;;;5031435;28;20477;-61
2023/01/20 05:06:00;;;;;;;23.27;22.27;;;19.50;51.10;;;;;;5031185;28;20487;-57
2023/01/20 05:08:27;;;;;;;23.57;22.57;;;19.60;51.20;;;;;;5031624;28;20535;-60
2023/01/20 05:10:54;;;;;;;24.00;22.80;;;19.60;51.30;;;;;;5031441;28;20807;-58
2023/01/20 05:13:22;;;;;;;25.03;23.83;;;19.60;51.00;;;;;;5030983;28;20552;-60
2023/01/20 05:15:49;;;;;;;25.70;24.40;;;19.60;51.00;;;;;;5031669;28;20799;-60
2023/01/20 05:18:16;;;;;;;24.27;23.13;;;19.60;51.00;;;;;;5030886;28;20467;-61
2023/01/20 05:20:45;;;;;;;25.90;24.70;;;19.60;51.10;;;;;;5032150;28;20540;-59
2023/01/20 05:23:12;;;;;;;23.83;22.83;;;19.60;51.10;;;;;;5035790;28;20461;-61
2023/01/20 05:25:39;;;;;;;24.90;23.80;;;19.60;51.10;;;;;;5035319;28;20482;-60
2023/01/20 05:28:05;;;;;;;23.90;22.83;;;19.60;51.20;;;;;;5035164;28;20946;-60
2023/01/20 05:30:34;;;;;;;25.07;23.97;;;19.70;51.30;;;;;;5035121;28;20453;-61
2023/01/20 05:33:01;;;;;;;24.67;23.40;;;19.70;51.40;;;;;;5035444;28;20458;-60
2023/01/20 05:35:27;;;;;;;24.33;23.13;;;19.80;51.70;;;;;;5035111;28;20869;-60
2023/01/20 05:37:55;;;;;;;23.83;22.73;;;19.80;51.80;;;;;;5035068;28;20638;-58
2023/01/20 05:40:22;;;;;;;25.50;24.07;;;19.80;52.20;;;;;;5035293;28;20444;-59
2023/01/20 05:42:49;;;;;;;27.50;25.30;;;19.90;53.50;;;;;;5034842;28;20443;-61
2023/01/20 05:45:16;;;;;;;25.73;23.67;;;19.90;56.00;;;;;;5034486;28;20256;-62
2023/01/20 05:47:44;;;;;;;26.33;24.67;;;19.90;55.60;;;;;;5035520;28;20437;-63
2023/01/20 05:50:12;;;;;;;25.17;23.60;;;20.00;55.60;;;;;;5035519;28;20455;-64
2023/01/20 05:52:39;;;;;;;27.40;25.70;;;20.00;55.30;;;;;;5035276;28;20445;-63
2023/01/20 05:55:06;;;;;;;26.57;24.50;;;20.10;54.90;;;;;;5034781;28;20468;-63
2023/01/20 05:57:33;;;;;;;25.10;23.70;;;20.20;54.60;;;;;;5035149;28;20445;-63
2023/01/20 06:00:00;;;;;;;25.27;23.63;;;20.20;54.20;;;;;;5034650;28;20444;-63
2023/01/20 06:02:29;;;;;;;25.43;24.03;;;20.30;53.90;;;;;;5035444;28;20532;-62
2023/01/20 06:05:00;;;;;;;26.00;24.30;;;20.40;53.60;;;;;;5035311;28;20465;-63
2023/01/20 06:07:27;;;;;;;28.13;26.13;;;20.40;53.40;;;;;;5034991;28;20821;-62
2023/01/20 06:09:54;;;;;;;25.97;24.33;;;20.50;53.10;;;;;;5034676;28;20532;-62
2023/01/20 06:12:21;;;;;;;26.57;24.67;;;20.60;52.90;;;;;;5034780;28;20444;-62
2023/01/20 06:14:47;;;;;;;25.63;24.30;;;20.60;52.60;;;;;;5034577;28;20559;-61
2023/01/20 06:17:14;;;;;;;25.83;24.30;;;20.60;52.40;;;;;;5034946;28;20884;-62
2023/01/20 06:19:41;;;;;;;25.50;24.20;;;20.60;52.20;;;;;;5034520;28;20449;-61
2023/01/20 06:22:14;;;;;;;25.53;23.90;;;20.70;52.00;;;;;;5034640;28;20479;-63
2023/01/20 06:24:40;;;;;;;25.53;24.00;;;20.70;51.80;;;;;;5034876;28;20472;-63
2023/01/20 06:27:07;;;;;;;26.50;24.80;;;20.70;51.70;;;;;;5034714;28;20571;-62
2023/01/20 06:29:34;;;;;;;26.67;25.07;;;20.70;51.50;;;;;;5034329;28;20451;-62
2023/01/20 06:32:01;;;;;;;28.53;26.33;;;20.70;51.30;;;;;;5033582;28;20913;-63
2023/01/20 06:34:28;;;;;;;27.30;25.80;;;20.70;51.20;;;;;;5034069;28;20523;-63
2023/01/20 06:36:55;;;;;;;26.73;25.33;;;20.80;51.70;;;;;;5034405;28;20539;-63
2023/01/20 06:39:23;;;;;;;29.90;27.60;;;20.80;51.10;;;;;;5034280;28;20455;-63
2023/01/20 06:41:50;;;;;;;26.23;24.60;;;20.80;51.00;;;;;;5034545;28;21017;-63
2023/01/20 06:44:17;;;;;;;24.90;23.50;;;20.80;50.80;;;;;;5056514;22;20512;-49
2023/01/20 06:46:44;;;;;;;24.43;23.23;;;20.80;50.70;;;;;;5025870;28;21049;-51
2023/01/20 06:49:11;;;;;;;26.67;24.90;;;20.80;50.70;;;;;;5034225;28;20813;-49
2023/01/20 06:51:38;;;;;;;25.20;23.53;;;20.90;51.10;;;;;;5034064;28;20441;-51
2023/01/20 06:54:05;;;;;;;24.17;23.07;;;20.90;50.50;;;;;;5034042;28;20495;-51
2023/01/20 06:56:33;;;;;;;23.80;22.60;;;20.90;50.40;;;;;;5034219;28;20441;-51
2023/01/20 06:59:00;;;;;;;24.97;23.53;;;20.90;50.30;;;;;;5033886;28;20876;-49
2023/01/20 07:01:28;;;;;;;24.73;23.53;;;21.00;50.30;;;;;;5033889;28;20531;-51
2023/01/20 07:03:55;;;;;;;24.70;23.40;;;21.00;50.20;;;;;;5033889;28;21158;-52
2023/01/20 07:06:27;;;;;;;24.67;23.13;;;21.00;50.20;;;;;;5033831;28;20491;-51
2023/01/20 07:08:54;;;;;;;24.47;23.37;;;21.00;50.00;;;;;;5033728;28;20451;-51
2023/01/20 07:11:21;;;;;;;25.03;23.73;;;21.00;50.00;;;;;;5033819;28;20930;-53
2023/01/20 07:13:49;;;;;;;24.73;23.30;;;21.10;50.00;;;;;;5033781;28;20465;-49
2023/01/20 07:16:16;;;;;;;23.90;22.80;;;21.10;49.80;;;;;;5033739;28;20544;-51
2023/01/20 07:18:46;;;;;;;24.90;23.60;;;21.10;49.80;;;;;;5033626;28;20445;-51
2023/01/20 07:21:13;;;;;;;25.47;24.07;;;21.10;49.60;;;;;;5033565;28;20445;-51
2023/01/20 07:23:40;;;;;;;25.10;23.80;;;21.10;49.60;;;;;;5033527;28;20476;-51
2023/01/20 07:26:09;;;;;;;24.90;23.70;;;21.20;49.60;;;;;;5033614;28;20985;-49
2023/01/20 07:28:36;;;;;;;26.30;25.00;;;21.20;50.00;;;;;;5033435;28;20441;-51
2023/01/20 07:31:06;;;;;;;25.13;23.80;;;21.20;49.40;;;;;;5033170;28;20977;-51
2023/01/20 07:33:33;;;;;;;25.63;24.43;;;21.20;49.30;;;;;;5033380;28;20459;-50
2023/01/20 07:36:00;;;;;;;25.70;24.40;;;21.20;49.20;;;;;;5033543;28;20539;-51
2023/01/20 07:38:27;;;;;;;24.97;23.77;;;21.20;49.10;;;;;;5033312;28;20449;-51
2023/01/20 07:40:57;;;;;;;25.90;24.60;;;21.20;49.10;;;;;;5033114;28;20451;-49
2023/01/20 07:43:24;;;;;;;25.47;24.23;;;21.20;49.00;;;;;;5032718;28;20449;-50
2023/01/20 07:45:54;;;;;;;27.10;25.70;;;21.20;49.00;;;;;;5033144;28;20441;-48
2023/01/20 07:48:23;;;;;;;26.23;24.60;;;21.20;48.90;;;;;;5033164;28;20441;-49
2023/01/20 07:51:00;;;;;;;25.87;24.43;;;21.30;48.90;;;;;;5032820;28;20472;-52
2023/01/20 07:53:27;;;;;;;27.20;25.83;;;21.30;48.80;;;;;;5032901;28;20545;-50
2023/01/20 07:55:54;;;;;;;25.10;23.90;;;21.30;48.80;;;;;;5032953;28;20449;-51
2023/01/20 07:58:21;;;;;;;24.97;23.70;;;21.30;48.80;;;;;;5032897;28;20524;-51
2023/01/20 08:00:48;;;;;;;25.00;23.50;;;21.30;48.70;;;;;;5032674;28;20445;-51
2023/01/20 08:03:15;;;;;;;24.47;23.30;;;21.30;48.70;;;;;;5032776;28;20449;-51
2023/01/20 08:05:43;;;;;;;25.43;24.13;;;21.30;48.70;;;;;;5032798;28;20957;-51
2023/01/20 08:08:10;;;;;;;25.23;23.80;;;21.30;48.60;;;;;;5032677;28;20572;-52
2023/01/20 08:10:37;;;;;;;24.63;23.40;;;21.30;48.60;;;;;;5032315;28;20535;-49
2023/01/20 08:13:03;;;;;;;26.33;24.83;;;21.40;48.60;;;;;;5032469;28;20449;-52
2023/01/20 08:15:30;;;;;;;24.40;23.20;;;21.40;48.50;;;;;;5032494;28;20465;-53
2023/01/20 08:17:59;;;;;;;25.20;24.03;;;21.40;48.50;;;;;;5032678;28;20448;-53
2023/01/20 08:20:25;;;;;;;25.40;24.20;;;21.40;48.50;;;;;;5032296;28;20705;-52
2023/01/20 08:22:54;;;;;;;25.23;23.73;;;21.40;48.40;;;;;;5032411;28;20972;-51
2023/01/20 08:25:20;;;;;;;24.80;23.60;;;21.40;48.40;;;;;;5032177;28;20558;-50
2023/01/20 08:27:49;;;;;;;25.30;24.00;;;21.40;48.30;;;;;;5032288;28;21009;-52
2023/01/20 08:30:16;;;;;;;25.40;24.20;;;21.40;48.30;;;;;;5032130;28;20449;-51
2023/01/20 08:32:43;;;;;;;24.60;23.50;;;21.40;48.20;;;;;;5032328;28;20472;-52
2023/01/20 08:35:09;;;;;;;25.37;24.07;;;21.40;48.20;;;;;;5032196;28;20886;-52
2023/01/20 08:37:36;;;;;;;25.63;24.43;;;21.50;48.30;;;;;;5032278;28;20453;-52
2023/01/20 08:40:07;;;;;;;26.50;25.03;;;21.40;48.20;;;;;;5031826;28;20445;-51
2023/01/20 08:42:34;;;;;;;26.20;24.90;;;21.50;48.20;;;;;;5032213;28;20455;-50
2023/01/20 08:45:01;;;;;;;25.30;24.10;;;21.40;48.10;;;;;;5031864;28;20561;-52
2023/01/20 08:47:28;;;;;;;26.00;24.80;;;21.50;48.10;;;;;;5031883;28;20491;-53
2023/01/20 08:49:55;;;;;;;24.87;23.67;;;21.50;48.00;;;;;;5031726;28;20452;-51
2023/01/20 08:52:22;;;;;;;24.97;23.80;;;21.50;48.00;;;;;;5031862;28;20532;-50
2023/01/20 08:54:51;;;;;;;25.60;24.40;;;21.50;48.00;;;;;;5031599;28;20465;-50
2023/01/20 08:57:20;;;;;;;25.50;24.30;;;21.50;48.40;;;;;;5031599;28;20437;-51
2023/01/20 08:59:47;;;;;;;25.50;24.40;;;21.50;47.80;;;;;;5031814;28;20818;-51
2023/01/20 09:02:14;;;;;;;24.83;23.63;;;21.50;47.70;;;;;;5031829;28;20460;-51
2023/01/20 09:04:41;;;;;;;25.37;24.17;;;21.50;47.70;;;;;;5031750;28;20571;-51
2023/01/20 09:07:10;;;;;;;25.80;24.60;;;21.50;47.70;;;;;;5031656;28;20491;-52
2023/01/20 09:09:37;;;;;;;25.83;24.63;;;21.50;47.70;;;;;;5031492;28;20455;-50
2023/01/20 09:12:04;;;;;;;25.10;23.90;;;21.50;47.70;;;;;;5031630;28;20813;-52
2023/01/20 09:14:32;;;;;;;24.17;23.07;;;21.60;47.70;;;;;;5031557;28;20464;-52
2023/01/20 09:17:00;;;;;;;24.77;23.67;;;21.60;47.70;;;;;;5031753;28;20765;-54
2023/01/20 09:19:27;;;;;;;24.53;23.43;;;21.50;47.60;;;;;;5031478;28;20502;-51
2023/01/20 09:21:54;;;;;;;25.47;24.27;;;21.60;47.60;;;;;;5031514;28;20532;-50
2023/01/20 09:24:21;;;;;;;25.00;23.83;;;21.50;47.50;;;;;;5031521;28;20559;-50
2023/01/20 09:26:48;;;;;;;24.80;23.40;;;21.60;47.50;;;;;;5031586;28;20491;-50
2023/01/20 09:29:16;;;;;;;26.23;24.97;;;21.60;47.50;;;;;;5031337;28;20451;-51
2023/01/20 09:31:49;;;;;;;25.27;24.17;;;21.60;47.40;;;;;;5031506;28;20455;-51
2023/01/20 09:34:18;;;;;;;25.37;24.10;;;21.60;47.40;;;;;;5031486;28;20556;-51
2023/01/20 09:36:45;;;;;;;24.90;23.90;;;21.60;47.30;;;;;;5031409;28;20471;-51
2023/01/20 09:44:53;;;;;;;24.13;22.90;;;21.60;47.30;;;;;;5031393;28;20476;-51
2023/01/20 09:47:28;;;;;;;24.77;23.67;;;21.60;47.30;;;;;;5031315;28;20488;-53
2023/01/20 09:53:06;;;;;;;24.20;23.00;;;21.60;47.20;;;;;;5031518;28;20440;-52
2023/01/20 09:55:48;;;;;;;26.40;25.20;;;21.70;47.30;;;;;;5031233;28;20552;-51
2023/01/20 09:58:22;;;;;;;25.70;24.60;;;21.60;47.20;;;;;;5031370;28;20532;-51
2023/01/20 10:00:53;;;;;;;24.67;23.63;;;21.60;47.10;;;;;;5031195;28;20813;-49
2023/01/20 10:03:35;;;;;;;25.23;24.13;;;21.70;47.80;;;;;;5031188;28;20451;-52
2023/01/20 10:06:07;;;;;;;24.90;23.60;;;21.70;47.20;;;;;;5031475;28;20814;-51
2023/01/20 10:08:41;;;;;;;24.20;23.00;;;21.70;47.10;;;;;;5034878;28;20862;-51
2023/01/20 10:11:11;;;;;;;24.80;23.60;;;21.70;47.10;;;;;;5034824;28;20448;-51
2023/01/20 10:13:46;;;;;;;25.20;23.90;;;21.70;47.10;;;;;;5034900;28;21068;-52
2023/01/20 10:16:22;;;;;;;23.00;21.90;;;21.70;47.10;;;;;;5024391;28;20449;-52
2023/01/20 10:18:55;;;;;;;24.50;23.30;;;21.70;47.00;;;;;;5012765;28;20468;-52
2023/01/20 10:21:30;;;;;;;23.70;22.60;;;21.70;47.00;;;;;;5014441;28;20453;-50
2023/01/20 10:24:00;;;;;;;25.83;24.47;;;21.70;46.90;;;;;;5015171;28;20927;-51
2023/01/20 10:26:31;;;;;;;25.10;24.00;;;21.70;46.80;;;;;;5014973;28;20456;-51
2023/01/20 10:29:00;;;;;;;25.50;24.27;;;21.70;46.70;;;;;;5014702;28;20492;-51
2023/01/20 10:31:28;;;;;;;25.40;24.13;;;21.80;46.70;;;;;;5014721;28;20477;-52
2023/01/20 10:34:04;;;;;;;26.13;24.93;;;21.70;46.60;;;;;;5014667;28;20989;-52
2023/01/20 10:36:34;;;;;;;24.10;23.00;;;21.80;46.60;;;;;;5014760;28;20453;-52
2023/01/20 10:39:05;;;;;;;24.83;23.80;;;21.70;46.60;;;;;;5014739;28;20512;-51
2023/01/20 10:41:38;;;;;;;25.20;24.03;;;21.80;46.60;;;;;;5015086;28;20477;-50
2023/01/20 10:44:11;;;;;;;25.37;24.07;;;21.80;46.60;;;;;;5014518;28;20556;-55
2023/01/20 10:46:53;;;;;;;25.07;24.00;;;21.80;46.60;;;;;;5014914;28;20452;-51
2023/01/20 10:49:48;;;;;;;25.90;24.80;;;21.80;46.60;;;;;;5014356;28;20448;-51
2023/01/20 10:52:28;;;;;;;25.03;24.03;;;21.80;46.50;;;;;;5014678;28;20496;-55
2023/01/20 10:55:06;;;;;;;24.60;23.50;;;21.80;46.50;;;;;;5014663;28;20466;-53
2023/01/20 10:57:34;;;;;;;24.23;23.13;;;21.80;46.50;;;;;;5014784;28;20446;-53
2023/01/20 11:00:07;;;;;;;23.90;22.80;;;21.80;46.50;;;;;;5014297;28;20532;-52
2023/01/20 11:02:36;;;;;;;24.27;23.07;;;21.80;46.50;;;;;;5014243;28;20488;-54
2023/01/20 11:05:16;;;;;;;24.37;23.23;;;21.80;46.50;;;;;;5014189;28;20559;-52
2023/01/20 11:07:45;;;;;;;23.90;22.80;;;21.80;46.40;;;;;;5014094;28;20489;-51
2023/01/20 11:10:15;;;;;;;24.63;23.53;;;21.80;46.40;;;;;;5014155;28;20442;-54
2023/01/20 11:12:43;;;;;;;23.40;22.30;;;21.80;46.30;;;;;;5014046;28;20461;-52
2023/01/20 11:15:17;;;;;;;23.83;22.83;;;21.80;46.30;;;;;;5013989;28;20470;-53
2023/01/20 11:17:44;;;;;;;23.90;22.90;;;21.80;46.20;;;;;;5013968;28;20529;-52
2023/01/20 11:20:20;;;;;;;24.80;23.70;;;21.80;46.30;;;;;;5013209;28;20450;-53
2023/01/20 11:22:49;;;;;;;24.50;23.50;;;21.80;46.20;;;;;;5013789;28;20452;-53
2023/01/20 11:25:24;;;;;;;24.73;23.67;;;21.80;46.20;;;;;;5013692;28;20466;-50
2023/01/20 11:27:52;;;;;;;23.43;22.33;;;21.80;46.20;;;;;;5013686;28;21021;-51
2023/01/20 11:30:28;;;;;;;23.33;22.33;;;21.80;46.10;;;;;;5013449;28;21076;-51
2023/01/20 11:33:17;;;;;;;23.17;22.07;;;21.80;46.20;;;;;;5013701;28;20447;-54
2023/01/20 11:35:59;;;;;;;23.57;22.47;;;21.90;46.30;;;;;;5013676;28;20450;-50
2023/01/20 11:38:27;;;;;;;23.57;22.47;;;21.80;46.20;;;;;;5013564;28;20442;-51
2023/01/20 11:40:56;;;;;;;23.67;22.57;;;21.90;46.20;;;;;;5013321;28;20446;-50
2023/01/20 11:43:35;;;;;;;23.70;22.60;;;21.90;46.20;;;;;;5013246;28;21018;-51
2023/01/20 11:46:15;;;;;;;22.97;21.87;;;21.90;46.10;;;;;;5013309;28;20448;-52
2023/01/20 11:48:42;;;;;;;23.53;22.33;;;21.90;46.10;;;;;;5013179;28;21018;-53
2023/01/20 11:51:20;;;;;;;23.27;22.17;;;21.90;46.60;;;;;;5013012;28;20532;-51
2023/01/20 11:53:48;;;;;;;23.20;22.13;;;21.90;46.10;;;;;;5013271;28;20470;-51
2023/01/20 11:56:22;;;;;;;23.70;22.50;;;21.90;46.00;;;;;;5013322;28;20540;-51
2023/01/20 11:58:53;;;;;;;23.03;21.93;;;21.90;46.10;;;;;;5013110;28;20451;-51
2023/01/20 12:01:25;;;;;;;22.53;21.53;;;21.80;45.90;;;;;;5012928;28;20442;-49
2023/01/20 12:04:22;;;;;;;22.73;21.73;;;21.80;45.90;;;;;;5013131;28;20472;-49
2023/01/20 12:06:59;;;;;;;23.53;22.50;;;21.90;46.00;;;;;;5013028;28;20446;-55
2023/01/20 12:09:30;;;;;;;22.83;21.83;;;21.90;46.00;;;;;;5012790;28;20486;-51
2023/01/20 12:11:59;;;;;;;22.83;21.83;;;21.80;45.90;;;;;;5012934;28;20438;-49
2023/01/20 12:14:31;;;;;;;23.87;22.77;;;21.80;45.90;;;;;;5012802;28;20823;-51
2023/01/20 12:17:19;;;;;;;21.80;20.90;;;21.80;45.90;;;;;;5012955;28;20446;-53
2023/01/20 12:20:06;;;;;;;22.97;21.97;;;21.80;45.90;;;;;;5012599;28;20442;-52
2023/01/20 12:22:43;;;;;;;22.83;21.93;;;21.80;45.80;;;;;;5012895;28;20446;-52
2023/01/20 12:25:18;;;;;;;22.73;21.77;;;21.80;45.80;;;;;;5012777;28;20474;-51
2023/01/20 12:27:49;;;;;;;22.40;21.50;;;21.80;45.80;;;;;;5012610;28;20849;-52
2023/01/20 12:30:39;;;;;;;23.50;22.30;;;21.80;45.80;;;;;;5011688;28;20961;-52
2023/01/20 12:33:22;;;;;;;24.33;23.23;;;21.80;45.80;;;;;;5012410;28;20525;-51
2023/01/20 12:36:25;;;;;;;22.90;21.80;;;21.80;45.70;;;;;;5012514;28;20814;-51
2023/01/20 12:39:17;;;;;;;22.30;21.30;;;21.80;45.80;;;;;;5012398;28;20799;-51
2023/01/20 12:42:03;;;;;;;22.57;21.57;;;21.80;45.70;;;;;;5012277;28;20456;-51
2023/01/20 12:44:40;;;;;;;22.90;21.80;;;21.80;45.70;;;;;;5012791;28;20469;-51
2023/01/20 12:47:19;;;;;;;22.20;21.20;;;21.80;45.60;;;;;;5012449;28;20456;-50
2023/01/20 12:50:05;;;;;;;22.70;21.70;;;21.80;45.70;;;;;;5011999;28;20514;-51
2023/01/20 12:52:45;;;;;;;24.23;23.23;;;21.80;45.60;;;;;;5012319;28;20528;-52